sensor_id;sensor_type;location;lat;lon;timestamp;P1;durP1;ratioP1;P2;durP2;ratioP2
14770;SDS011;7477;45.222;5.688;2023-05-10T00:02:45;0.93;;;0.73;;
14770;SDS011;7477;45.222;5.688;2023-05-10T00:06:04;0.80;;;0.80;;
14770;SDS011;7477;45.222;5.688;2023-05-10T00:09:24;0.50;;;0.50;;
14770;SDS011;7477;45.222;5.688;2023-05-10T00:12:43;1.83;;;0.80;;
14770;SDS011;7477;45.222;5.688;2023-05-10T00:16:03;1.92;;;1.10;;
14770;SDS011;7477;45.222;5.688;2023-05-10T00:19:22;1.38;;;0.50;;
14770;SDS011;7477;45.222;5.688;2023-05-10T00:22:42;0.80;;;0.80;;
14770;SDS011;7477;45.222;5.688;2023-05-10T00:26:01;0.60;;;0.60;;
14770;SDS011;7477;45.222;5.688;2023-05-10T00:29:21;1.25;;;0.70;;
14770;SDS011;7477;45.222;5.688;2023-05-10T00:32:40;1.20;;;0.90;;
14770;SDS011;7477;45.222;5.688;2023-05-10T00:35:59;0.50;;;0.50;;
14770;SDS011;7477;45.222;5.688;2023-05-10T00:39:18;3.88;;;0.88;;
14770;SDS011;7477;45.222;5.688;2023-05-10T00:42:38;1.27;;;0.90;;
14770;SDS011;7477;45.222;5.688;2023-05-10T00:45:57;1.17;;;0.95;;
14770;SDS011;7477;45.222;5.688;2023-05-10T00:49:16;3.30;;;1.00;;
14770;SDS011;7477;45.222;5.688;2023-05-10T00:52:36;4.22;;;1.15;;
14770;SDS011;7477;45.222;5.688;2023-05-10T00:55:55;0.85;;;0.70;;
14770;SDS011;7477;45.222;5.688;2023-05-10T00:59:15;2.97;;;0.73;;
14770;SDS011;7477;45.222;5.688;2023-05-10T01:02:35;1.08;;;0.90;;
14770;SDS011;7477;45.222;5.688;2023-05-10T01:05:54;0.90;;;0.82;;
14770;SDS011;7477;45.222;5.688;2023-05-10T01:09:14;1.60;;;0.70;;
14770;SDS011;7477;45.222;5.688;2023-05-10T01:12:34;0.75;;;0.75;;
14770;SDS011;7477;45.222;5.688;2023-05-10T01:15:55;3.95;;;0.80;;
14770;SDS011;7477;45.222;5.688;2023-05-10T01:19:21;5.05;;;1.13;;
14770;SDS011;7477;45.222;5.688;2023-05-10T01:33:54;4.95;;;0.90;;
14770;SDS011;7477;45.222;5.688;2023-05-10T01:37:21;6.47;;;1.20;;
14770;SDS011;7477;45.222;5.688;2023-05-10T01:40:58;2.42;;;1.00;;
14770;SDS011;7477;45.222;5.688;2023-05-10T01:48:11;0.60;;;0.60;;
14770;SDS011;7477;45.222;5.688;2023-05-10T01:51:35;1.40;;;0.70;;
14770;SDS011;7477;45.222;5.688;2023-05-10T01:55:05;2.65;;;1.00;;
14770;SDS011;7477;45.222;5.688;2023-05-10T01:58:29;1.08;;;0.98;;
14770;SDS011;7477;45.222;5.688;2023-05-10T02:01:51;2.00;;;0.90;;
14770;SDS011;7477;45.222;5.688;2023-05-10T02:05:12;1.20;;;0.85;;
14770;SDS011;7477;45.222;5.688;2023-05-10T02:08:33;2.10;;;0.85;;
14770;SDS011;7477;45.222;5.688;2023-05-10T02:11:55;1.08;;;0.88;;
14770;SDS011;7477;45.222;5.688;2023-05-10T02:15:22;0.90;;;0.90;;
14770;SDS011;7477;45.222;5.688;2023-05-10T02:18:43;1.00;;;0.98;;
14770;SDS011;7477;45.222;5.688;2023-05-10T02:22:03;1.48;;;0.93;;
14770;SDS011;7477;45.222;5.688;2023-05-10T02:25:23;1.42;;;1.15;;
14770;SDS011;7477;45.222;5.688;2023-05-10T02:28:44;0.90;;;0.90;;
14770;SDS011;7477;45.222;5.688;2023-05-10T02:32:04;3.63;;;1.00;;
14770;SDS011;7477;45.222;5.688;2023-05-10T02:35:25;5.28;;;0.85;;
14770;SDS011;7477;45.222;5.688;2023-05-10T02:38:46;0.80;;;0.80;;
14770;SDS011;7477;45.222;5.688;2023-05-10T02:42:07;5.13;;;1.23;;
14770;SDS011;7477;45.222;5.688;2023-05-10T02:45:27;1.88;;;1.15;;
14770;SDS011;7477;45.222;5.688;2023-05-10T02:48:50;2.35;;;0.80;;
14770;SDS011;7477;45.222;5.688;2023-05-10T02:52:09;3.00;;;0.80;;
14770;SDS011;7477;45.222;5.688;2023-05-10T02:55:35;2.05;;;0.98;;
14770;SDS011;7477;45.222;5.688;2023-05-10T02:58:57;2.13;;;0.80;;
14770;SDS011;7477;45.222;5.688;2023-05-10T03:02:16;0.98;;;0.70;;
14770;SDS011;7477;45.222;5.688;2023-05-10T03:05:35;2.92;;;1.00;;
14770;SDS011;7477;45.222;5.688;2023-05-10T03:08:54;0.98;;;0.60;;
14770;SDS011;7477;45.222;5.688;2023-05-10T03:12:27;1.95;;;0.88;;
14770;SDS011;7477;45.222;5.688;2023-05-10T03:16:16;0.85;;;0.73;;
14770;SDS011;7477;45.222;5.688;2023-05-10T03:19:55;1.52;;;0.90;;
14770;SDS011;7477;45.222;5.688;2023-05-10T03:27:02;3.47;;;0.93;;
14770;SDS011;7477;45.222;5.688;2023-05-10T03:30:22;2.13;;;0.90;;
14770;SDS011;7477;45.222;5.688;2023-05-10T03:33:47;2.35;;;1.00;;
14770;SDS011;7477;45.222;5.688;2023-05-10T03:37:07;2.15;;;0.90;;
14770;SDS011;7477;45.222;5.688;2023-05-10T03:40:26;1.13;;;0.70;;
14770;SDS011;7477;45.222;5.688;2023-05-10T03:43:47;1.10;;;0.65;;
14770;SDS011;7477;45.222;5.688;2023-05-10T03:47:06;0.60;;;0.60;;
14770;SDS011;7477;45.222;5.688;2023-05-10T03:50:25;1.75;;;0.85;;
14770;SDS011;7477;45.222;5.688;2023-05-10T03:53:45;1.23;;;1.05;;
14770;SDS011;7477;45.222;5.688;2023-05-10T03:57:04;1.73;;;1.20;;
14770;SDS011;7477;45.222;5.688;2023-05-10T04:00:23;1.13;;;1.02;;
14770;SDS011;7477;45.222;5.688;2023-05-10T04:03:43;3.40;;;1.02;;
14770;SDS011;7477;45.222;5.688;2023-05-10T04:07:02;2.22;;;1.08;;
14770;SDS011;7477;45.222;5.688;2023-05-10T04:10:21;0.93;;;0.85;;
14770;SDS011;7477;45.222;5.688;2023-05-10T04:13:41;4.03;;;0.90;;
14770;SDS011;7477;45.222;5.688;2023-05-10T04:17:01;1.13;;;0.80;;
14770;SDS011;7477;45.222;5.688;2023-05-10T04:20:20;0.80;;;0.80;;
14770;SDS011;7477;45.222;5.688;2023-05-10T04:23:40;3.88;;;1.00;;
14770;SDS011;7477;45.222;5.688;2023-05-10T04:26:59;0.65;;;0.63;;
14770;SDS011;7477;45.222;5.688;2023-05-10T04:30:19;0.73;;;0.70;;
14770;SDS011;7477;45.222;5.688;2023-05-10T04:33:38;3.40;;;0.68;;
14770;SDS011;7477;45.222;5.688;2023-05-10T04:36:57;1.17;;;0.60;;
14770;SDS011;7477;45.222;5.688;2023-05-10T04:40:17;1.60;;;0.90;;
14770;SDS011;7477;45.222;5.688;2023-05-10T04:43:36;1.90;;;0.95;;
14770;SDS011;7477;45.222;5.688;2023-05-10T04:46:56;1.52;;;1.00;;
14770;SDS011;7477;45.222;5.688;2023-05-10T04:50:16;0.82;;;0.80;;
14770;SDS011;7477;45.222;5.688;2023-05-10T04:53:36;4.97;;;1.20;;
14770;SDS011;7477;45.222;5.688;2023-05-10T04:56:55;1.15;;;1.00;;
14770;SDS011;7477;45.222;5.688;2023-05-10T05:00:14;2.85;;;0.90;;
14770;SDS011;7477;45.222;5.688;2023-05-10T05:03:33;1.85;;;0.88;;
14770;SDS011;7477;45.222;5.688;2023-05-10T05:06:53;5.95;;;1.30;;
14770;SDS011;7477;45.222;5.688;2023-05-10T05:10:12;3.83;;;1.10;;
14770;SDS011;7477;45.222;5.688;2023-05-10T05:13:31;1.80;;;0.93;;
14770;SDS011;7477;45.222;5.688;2023-05-10T05:16:51;1.48;;;0.80;;
14770;SDS011;7477;45.222;5.688;2023-05-10T05:20:10;1.88;;;0.75;;
14770;SDS011;7477;45.222;5.688;2023-05-10T05:23:30;5.45;;;1.52;;
14770;SDS011;7477;45.222;5.688;2023-05-10T05:26:49;0.82;;;0.82;;
14770;SDS011;7477;45.222;5.688;2023-05-10T05:30:08;2.45;;;1.10;;
14770;SDS011;7477;45.222;5.688;2023-05-10T05:33:28;2.63;;;0.90;;
14770;SDS011;7477;45.222;5.688;2023-05-10T05:36:47;2.90;;;1.20;;
14770;SDS011;7477;45.222;5.688;2023-05-10T05:40:07;1.60;;;1.02;;
14770;SDS011;7477;45.222;5.688;2023-05-10T05:43:26;1.67;;;1.20;;
14770;SDS011;7477;45.222;5.688;2023-05-10T05:46:46;3.47;;;1.30;;
14770;SDS011;7477;45.222;5.688;2023-05-10T05:50:05;1.40;;;1.08;;
14770;SDS011;7477;45.222;5.688;2023-05-10T05:53:25;2.75;;;1.23;;
14770;SDS011;7477;45.222;5.688;2023-05-10T05:56:45;2.97;;;0.98;;
14770;SDS011;7477;45.222;5.688;2023-05-10T06:00:04;4.35;;;0.98;;
14770;SDS011;7477;45.222;5.688;2023-05-10T06:03:24;3.47;;;1.30;;
14770;SDS011;7477;45.222;5.688;2023-05-10T06:06:43;2.17;;;1.17;;
14770;SDS011;7477;45.222;5.688;2023-05-10T06:10:03;2.00;;;1.27;;
14770;SDS011;7477;45.222;5.688;2023-05-10T06:13:24;1.38;;;1.02;;
14770;SDS011;7477;45.222;5.688;2023-05-10T06:16:43;3.38;;;1.30;;
14770;SDS011;7477;45.222;5.688;2023-05-10T06:20:03;4.25;;;1.45;;
14770;SDS011;7477;45.222;5.688;2023-05-10T06:23:23;2.90;;;1.27;;
14770;SDS011;7477;45.222;5.688;2023-05-10T06:26:44;2.03;;;1.60;;
14770;SDS011;7477;45.222;5.688;2023-05-10T06:30:04;2.17;;;1.00;;
14770;SDS011;7477;45.222;5.688;2023-05-10T06:33:24;3.50;;;1.30;;
14770;SDS011;7477;45.222;5.688;2023-05-10T06:36:43;3.08;;;1.33;;
14770;SDS011;7477;45.222;5.688;2023-05-10T06:40:03;2.60;;;1.25;;
14770;SDS011;7477;45.222;5.688;2023-05-10T06:43:23;3.63;;;1.67;;
14770;SDS011;7477;45.222;5.688;2023-05-10T06:46:43;2.58;;;1.40;;
14770;SDS011;7477;45.222;5.688;2023-05-10T06:50:02;2.83;;;1.42;;
14770;SDS011;7477;45.222;5.688;2023-05-10T06:53:22;3.42;;;1.40;;
14770;SDS011;7477;45.222;5.688;2023-05-10T06:56:41;3.75;;;1.67;;
14770;SDS011;7477;45.222;5.688;2023-05-10T07:00:00;5.68;;;1.90;;
14770;SDS011;7477;45.222;5.688;2023-05-10T07:03:22;6.18;;;1.30;;
14770;SDS011;7477;45.222;5.688;2023-05-10T07:06:41;2.45;;;1.45;;
14770;SDS011;7477;45.222;5.688;2023-05-10T07:10:00;4.80;;;1.73;;
14770;SDS011;7477;45.222;5.688;2023-05-10T07:13:20;4.05;;;2.22;;
14770;SDS011;7477;45.222;5.688;2023-05-10T07:16:39;2.58;;;1.40;;
14770;SDS011;7477;45.222;5.688;2023-05-10T07:19:58;5.65;;;1.48;;
14770;SDS011;7477;45.222;5.688;2023-05-10T07:23:18;6.93;;;1.63;;
14770;SDS011;7477;45.222;5.688;2023-05-10T07:26:38;6.97;;;1.65;;
14770;SDS011;7477;45.222;5.688;2023-05-10T07:29:58;4.43;;;1.70;;
14770;SDS011;7477;45.222;5.688;2023-05-10T07:33:17;3.63;;;1.58;;
14770;SDS011;7477;45.222;5.688;2023-05-10T07:36:36;6.25;;;1.88;;
14770;SDS011;7477;45.222;5.688;2023-05-10T07:39:56;3.40;;;1.60;;
14770;SDS011;7477;45.222;5.688;2023-05-10T07:43:15;7.07;;;1.50;;
14770;SDS011;7477;45.222;5.688;2023-05-10T07:46:34;4.60;;;1.33;;
14770;SDS011;7477;45.222;5.688;2023-05-10T07:49:53;4.55;;;1.73;;
14770;SDS011;7477;45.222;5.688;2023-05-10T07:53:12;4.97;;;1.88;;
14770;SDS011;7477;45.222;5.688;2023-05-10T07:56:31;7.80;;;1.98;;
14770;SDS011;7477;45.222;5.688;2023-05-10T07:59:51;5.15;;;1.85;;
14770;SDS011;7477;45.222;5.688;2023-05-10T08:03:10;6.93;;;1.75;;
14770;SDS011;7477;45.222;5.688;2023-05-10T08:06:29;10.35;;;2.38;;
14770;SDS011;7477;45.222;5.688;2023-05-10T08:09:49;3.25;;;1.70;;
14770;SDS011;7477;45.222;5.688;2023-05-10T08:13:08;8.02;;;2.00;;
14770;SDS011;7477;45.222;5.688;2023-05-10T08:16:27;8.32;;;2.25;;
14770;SDS011;7477;45.222;5.688;2023-05-10T08:19:47;4.65;;;1.80;;
14770;SDS011;7477;45.222;5.688;2023-05-10T08:23:06;5.53;;;1.75;;
14770;SDS011;7477;45.222;5.688;2023-05-10T08:26:25;3.67;;;1.42;;
14770;SDS011;7477;45.222;5.688;2023-05-10T08:29:45;5.70;;;1.52;;
14770;SDS011;7477;45.222;5.688;2023-05-10T08:33:04;6.63;;;1.70;;
14770;SDS011;7477;45.222;5.688;2023-05-10T08:36:23;4.93;;;1.48;;
14770;SDS011;7477;45.222;5.688;2023-05-10T08:39:43;2.13;;;1.35;;
14770;SDS011;7477;45.222;5.688;2023-05-10T08:43:08;2.63;;;1.38;;
14770;SDS011;7477;45.222;5.688;2023-05-10T08:46:28;7.90;;;1.50;;
14770;SDS011;7477;45.222;5.688;2023-05-10T08:49:51;5.22;;;1.70;;
14770;SDS011;7477;45.222;5.688;2023-05-10T08:53:12;5.72;;;1.70;;
14770;SDS011;7477;45.222;5.688;2023-05-10T08:56:33;4.95;;;1.42;;
14770;SDS011;7477;45.222;5.688;2023-05-10T08:59:53;4.07;;;1.63;;
14770;SDS011;7477;45.222;5.688;2023-05-10T09:03:13;3.38;;;1.15;;
14770;SDS011;7477;45.222;5.688;2023-05-10T09:06:32;2.88;;;1.33;;
14770;SDS011;7477;45.222;5.688;2023-05-10T09:09:52;2.78;;;1.40;;
14770;SDS011;7477;45.222;5.688;2023-05-10T09:13:13;5.90;;;1.77;;
14770;SDS011;7477;45.222;5.688;2023-05-10T09:16:34;5.03;;;2.08;;
14770;SDS011;7477;45.222;5.688;2023-05-10T09:19:59;10.85;;;2.25;;
14770;SDS011;7477;45.222;5.688;2023-05-10T09:23:22;2.30;;;1.33;;
14770;SDS011;7477;45.222;5.688;2023-05-10T09:26:46;6.55;;;1.70;;
14770;SDS011;7477;45.222;5.688;2023-05-10T09:30:10;4.53;;;1.40;;
14770;SDS011;7477;45.222;5.688;2023-05-10T09:33:43;6.38;;;1.88;;
14770;SDS011;7477;45.222;5.688;2023-05-10T09:37:04;3.63;;;1.48;;
14770;SDS011;7477;45.222;5.688;2023-05-10T09:40:23;3.75;;;1.70;;
14770;SDS011;7477;45.222;5.688;2023-05-10T09:43:43;3.67;;;1.45;;
14770;SDS011;7477;45.222;5.688;2023-05-10T09:47:03;3.60;;;1.50;;
14770;SDS011;7477;45.222;5.688;2023-05-10T09:50:23;6.13;;;1.60;;
14770;SDS011;7477;45.222;5.688;2023-05-10T09:53:43;6.35;;;1.70;;
14770;SDS011;7477;45.222;5.688;2023-05-10T09:57:02;2.35;;;1.25;;
14770;SDS011;7477;45.222;5.688;2023-05-10T10:00:22;5.35;;;1.73;;
14770;SDS011;7477;45.222;5.688;2023-05-10T10:03:41;4.95;;;1.38;;
14770;SDS011;7477;45.222;5.688;2023-05-10T10:07:02;8.55;;;1.95;;
14770;SDS011;7477;45.222;5.688;2023-05-10T10:10:24;2.97;;;1.70;;
14770;SDS011;7477;45.222;5.688;2023-05-10T10:13:46;5.38;;;1.52;;
14770;SDS011;7477;45.222;5.688;2023-05-10T10:17:06;8.85;;;2.00;;
14770;SDS011;7477;45.222;5.688;2023-05-10T10:20:26;4.80;;;1.65;;
14770;SDS011;7477;45.222;5.688;2023-05-10T10:23:46;6.35;;;1.25;;
14770;SDS011;7477;45.222;5.688;2023-05-10T10:30:52;2.28;;;1.40;;
14770;SDS011;7477;45.222;5.688;2023-05-10T10:34:22;2.30;;;1.05;;
14770;SDS011;7477;45.222;5.688;2023-05-10T10:37:48;5.00;;;1.23;;
14770;SDS011;7477;45.222;5.688;2023-05-10T10:41:10;1.35;;;1.10;;
14770;SDS011;7477;45.222;5.688;2023-05-10T10:44:47;6.28;;;1.52;;
14770;SDS011;7477;45.222;5.688;2023-05-10T10:48:22;1.42;;;1.10;;
14770;SDS011;7477;45.222;5.688;2023-05-10T10:52:12;3.05;;;1.25;;
14770;SDS011;7477;45.222;5.688;2023-05-10T10:55:34;1.25;;;0.90;;
14770;SDS011;7477;45.222;5.688;2023-05-10T10:58:53;4.07;;;1.45;;
14770;SDS011;7477;45.222;5.688;2023-05-10T11:02:34;3.53;;;1.30;;
14770;SDS011;7477;45.222;5.688;2023-05-10T11:06:07;1.23;;;0.90;;
14770;SDS011;7477;45.222;5.688;2023-05-10T11:09:27;2.85;;;1.17;;
14770;SDS011;7477;45.222;5.688;2023-05-10T11:13:02;6.43;;;1.17;;
14770;SDS011;7477;45.222;5.688;2023-05-10T11:16:23;4.30;;;1.38;;
14770;SDS011;7477;45.222;5.688;2023-05-10T11:20:01;4.57;;;1.60;;
14770;SDS011;7477;45.222;5.688;2023-05-10T11:23:33;3.92;;;1.25;;
14770;SDS011;7477;45.222;5.688;2023-05-10T11:27:06;5.88;;;1.60;;
14770;SDS011;7477;45.222;5.688;2023-05-10T11:30:25;3.05;;;1.58;;
14770;SDS011;7477;45.222;5.688;2023-05-10T11:33:45;2.17;;;1.30;;
14770;SDS011;7477;45.222;5.688;2023-05-10T11:37:05;3.53;;;1.20;;
14770;SDS011;7477;45.222;5.688;2023-05-10T11:40:24;3.83;;;1.10;;
14770;SDS011;7477;45.222;5.688;2023-05-10T11:43:51;1.15;;;0.82;;
14770;SDS011;7477;45.222;5.688;2023-05-10T11:47:12;2.80;;;1.30;;
14770;SDS011;7477;45.222;5.688;2023-05-10T11:50:31;1.42;;;1.10;;
14770;SDS011;7477;45.222;5.688;2023-05-10T11:53:55;2.42;;;1.20;;
14770;SDS011;7477;45.222;5.688;2023-05-10T11:57:15;2.25;;;1.13;;
14770;SDS011;7477;45.222;5.688;2023-05-10T12:00:36;1.90;;;1.15;;
14770;SDS011;7477;45.222;5.688;2023-05-10T12:03:56;2.33;;;1.10;;
14770;SDS011;7477;45.222;5.688;2023-05-10T12:07:18;4.05;;;1.23;;
14770;SDS011;7477;45.222;5.688;2023-05-10T12:10:38;2.75;;;1.30;;
14770;SDS011;7477;45.222;5.688;2023-05-10T12:13:57;3.45;;;1.45;;
14770;SDS011;7477;45.222;5.688;2023-05-10T12:17:17;2.42;;;1.00;;
14770;SDS011;7477;45.222;5.688;2023-05-10T12:20:36;2.15;;;1.23;;
14770;SDS011;7477;45.222;5.688;2023-05-10T12:23:59;4.07;;;1.40;;
14770;SDS011;7477;45.222;5.688;2023-05-10T12:27:20;4.95;;;1.20;;
14770;SDS011;7477;45.222;5.688;2023-05-10T12:30:39;2.47;;;1.17;;
14770;SDS011;7477;45.222;5.688;2023-05-10T12:33:58;2.17;;;0.93;;
14770;SDS011;7477;45.222;5.688;2023-05-10T12:37:17;3.50;;;1.25;;
14770;SDS011;7477;45.222;5.688;2023-05-10T12:40:43;4.55;;;1.33;;
14770;SDS011;7477;45.222;5.688;2023-05-10T12:44:02;3.35;;;1.20;;
14770;SDS011;7477;45.222;5.688;2023-05-10T12:47:21;2.33;;;0.98;;
14770;SDS011;7477;45.222;5.688;2023-05-10T12:50:40;3.03;;;1.10;;
14770;SDS011;7477;45.222;5.688;2023-05-10T12:53:59;1.92;;;1.15;;
14770;SDS011;7477;45.222;5.688;2023-05-10T12:57:22;3.42;;;1.17;;
14770;SDS011;7477;45.222;5.688;2023-05-10T13:00:41;3.13;;;1.10;;
14770;SDS011;7477;45.222;5.688;2023-05-10T13:04:02;8.40;;;1.40;;
14770;SDS011;7477;45.222;5.688;2023-05-10T13:07:21;1.10;;;0.82;;
14770;SDS011;7477;45.222;5.688;2023-05-10T13:10:40;0.90;;;0.73;;
14770;SDS011;7477;45.222;5.688;2023-05-10T13:13:59;2.80;;;0.90;;
14770;SDS011;7477;45.222;5.688;2023-05-10T13:17:19;1.58;;;1.05;;
14770;SDS011;7477;45.222;5.688;2023-05-10T13:20:38;1.08;;;0.95;;
14770;SDS011;7477;45.222;5.688;2023-05-10T13:23:57;2.80;;;0.95;;
14770;SDS011;7477;45.222;5.688;2023-05-10T13:27:17;5.90;;;1.60;;
14770;SDS011;7477;45.222;5.688;2023-05-10T13:30:36;1.55;;;0.98;;
14770;SDS011;7477;45.222;5.688;2023-05-10T13:33:55;6.28;;;1.45;;
14770;SDS011;7477;45.222;5.688;2023-05-10T13:37:14;2.25;;;1.08;;
14770;SDS011;7477;45.222;5.688;2023-05-10T13:40:33;6.40;;;1.02;;
14770;SDS011;7477;45.222;5.688;2023-05-10T13:43:54;2.60;;;0.95;;
14770;SDS011;7477;45.222;5.688;2023-05-10T13:47:13;0.95;;;0.82;;
14770;SDS011;7477;45.222;5.688;2023-05-10T13:50:32;1.90;;;0.95;;
14770;SDS011;7477;45.222;5.688;2023-05-10T13:53:51;3.88;;;1.02;;
14770;SDS011;7477;45.222;5.688;2023-05-10T13:57:10;4.53;;;1.08;;
14770;SDS011;7477;45.222;5.688;2023-05-10T14:00:32;3.58;;;1.27;;
14770;SDS011;7477;45.222;5.688;2023-05-10T14:03:52;2.42;;;0.88;;
14770;SDS011;7477;45.222;5.688;2023-05-10T14:07:12;3.13;;;1.08;;
14770;SDS011;7477;45.222;5.688;2023-05-10T14:10:31;3.75;;;1.27;;
14770;SDS011;7477;45.222;5.688;2023-05-10T14:13:50;1.73;;;0.90;;
14770;SDS011;7477;45.222;5.688;2023-05-10T14:17:09;2.58;;;1.23;;
14770;SDS011;7477;45.222;5.688;2023-05-10T14:20:28;2.53;;;1.20;;
14770;SDS011;7477;45.222;5.688;2023-05-10T14:23:48;1.80;;;0.85;;
14770;SDS011;7477;45.222;5.688;2023-05-10T14:27:07;2.35;;;1.17;;
14770;SDS011;7477;45.222;5.688;2023-05-10T14:30:27;2.47;;;1.05;;
14770;SDS011;7477;45.222;5.688;2023-05-10T14:33:46;6.85;;;1.35;;
14770;SDS011;7477;45.222;5.688;2023-05-10T14:37:05;2.70;;;0.93;;
14770;SDS011;7477;45.222;5.688;2023-05-10T14:40:25;3.90;;;1.60;;
14770;SDS011;7477;45.222;5.688;2023-05-10T14:43:44;3.65;;;1.48;;
14770;SDS011;7477;45.222;5.688;2023-05-10T14:47:03;6.80;;;1.35;;
14770;SDS011;7477;45.222;5.688;2023-05-10T14:50:22;3.50;;;1.08;;
14770;SDS011;7477;45.222;5.688;2023-05-10T14:53:42;3.53;;;1.20;;
14770;SDS011;7477;45.222;5.688;2023-05-10T14:57:01;4.40;;;1.40;;
14770;SDS011;7477;45.222;5.688;2023-05-10T15:00:21;1.65;;;0.73;;
14770;SDS011;7477;45.222;5.688;2023-05-10T15:03:40;0.98;;;0.63;;
14770;SDS011;7477;45.222;5.688;2023-05-10T15:07:00;5.90;;;2.05;;
14770;SDS011;7477;45.222;5.688;2023-05-10T15:10:19;3.75;;;1.25;;
14770;SDS011;7477;45.222;5.688;2023-05-10T15:13:38;4.00;;;1.10;;
14770;SDS011;7477;45.222;5.688;2023-05-10T15:16:57;3.00;;;1.10;;
14770;SDS011;7477;45.222;5.688;2023-05-10T15:20:16;2.33;;;1.00;;
14770;SDS011;7477;45.222;5.688;2023-05-10T15:23:36;2.42;;;1.10;;
14770;SDS011;7477;45.222;5.688;2023-05-10T15:26:55;1.55;;;0.88;;
14770;SDS011;7477;45.222;5.688;2023-05-10T15:30:14;1.88;;;0.90;;
14770;SDS011;7477;45.222;5.688;2023-05-10T15:33:34;1.15;;;1.05;;
14770;SDS011;7477;45.222;5.688;2023-05-10T15:36:55;4.60;;;1.55;;
14770;SDS011;7477;45.222;5.688;2023-05-10T15:40:14;3.15;;;1.30;;
14770;SDS011;7477;45.222;5.688;2023-05-10T15:43:33;2.20;;;1.10;;
14770;SDS011;7477;45.222;5.688;2023-05-10T15:46:52;1.75;;;0.95;;
14770;SDS011;7477;45.222;5.688;2023-05-10T15:50:11;2.45;;;0.90;;
14770;SDS011;7477;45.222;5.688;2023-05-10T15:53:31;2.08;;;0.93;;
14770;SDS011;7477;45.222;5.688;2023-05-10T15:56:50;3.13;;;1.20;;
14770;SDS011;7477;45.222;5.688;2023-05-10T16:00:10;1.80;;;1.08;;
14770;SDS011;7477;45.222;5.688;2023-05-10T16:03:31;2.03;;;0.93;;
14770;SDS011;7477;45.222;5.688;2023-05-10T16:06:51;4.22;;;1.20;;
14770;SDS011;7477;45.222;5.688;2023-05-10T16:10:10;4.78;;;0.93;;
14770;SDS011;7477;45.222;5.688;2023-05-10T16:13:32;4.07;;;1.42;;
14770;SDS011;7477;45.222;5.688;2023-05-10T16:16:52;3.25;;;1.10;;
14770;SDS011;7477;45.222;5.688;2023-05-10T16:20:11;4.03;;;1.50;;
14770;SDS011;7477;45.222;5.688;2023-05-10T16:23:31;2.70;;;1.08;;
14770;SDS011;7477;45.222;5.688;2023-05-10T16:26:50;3.83;;;1.40;;
14770;SDS011;7477;45.222;5.688;2023-05-10T16:30:09;3.88;;;1.50;;
14770;SDS011;7477;45.222;5.688;2023-05-10T16:33:28;5.60;;;1.40;;
14770;SDS011;7477;45.222;5.688;2023-05-10T16:36:47;1.08;;;0.98;;
14770;SDS011;7477;45.222;5.688;2023-05-10T16:40:06;3.53;;;1.25;;
14770;SDS011;7477;45.222;5.688;2023-05-10T16:43:26;4.03;;;1.15;;
14770;SDS011;7477;45.222;5.688;2023-05-10T16:46:46;3.85;;;0.93;;
14770;SDS011;7477;45.222;5.688;2023-05-10T16:50:06;3.88;;;1.00;;
14770;SDS011;7477;45.222;5.688;2023-05-10T16:53:25;4.72;;;1.63;;
14770;SDS011;7477;45.222;5.688;2023-05-10T16:56:46;5.53;;;1.48;;
14770;SDS011;7477;45.222;5.688;2023-05-10T17:00:05;3.42;;;1.10;;
14770;SDS011;7477;45.222;5.688;2023-05-10T17:03:26;3.55;;;1.25;;
14770;SDS011;7477;45.222;5.688;2023-05-10T17:06:45;3.35;;;1.50;;
14770;SDS011;7477;45.222;5.688;2023-05-10T17:10:05;5.30;;;1.50;;
14770;SDS011;7477;45.222;5.688;2023-05-10T17:13:25;2.85;;;1.40;;
14770;SDS011;7477;45.222;5.688;2023-05-10T17:16:44;4.63;;;1.27;;
14770;SDS011;7477;45.222;5.688;2023-05-10T17:20:05;2.92;;;1.40;;
14770;SDS011;7477;45.222;5.688;2023-05-10T17:23:26;3.95;;;1.42;;
14770;SDS011;7477;45.222;5.688;2023-05-10T17:26:45;10.25;;;1.27;;
14770;SDS011;7477;45.222;5.688;2023-05-10T17:30:05;4.50;;;1.35;;
14770;SDS011;7477;45.222;5.688;2023-05-10T17:33:24;2.75;;;1.30;;
14770;SDS011;7477;45.222;5.688;2023-05-10T17:36:44;8.80;;;2.13;;
14770;SDS011;7477;45.222;5.688;2023-05-10T17:40:03;1.63;;;0.98;;
14770;SDS011;7477;45.222;5.688;2023-05-10T17:43:24;2.50;;;1.63;;
14770;SDS011;7477;45.222;5.688;2023-05-10T17:46:43;5.28;;;1.52;;
14770;SDS011;7477;45.222;5.688;2023-05-10T17:50:04;4.07;;;1.30;;
14770;SDS011;7477;45.222;5.688;2023-05-10T17:53:24;3.42;;;1.55;;
14770;SDS011;7477;45.222;5.688;2023-05-10T17:56:43;2.33;;;1.23;;
14770;SDS011;7477;45.222;5.688;2023-05-10T18:00:02;3.38;;;1.25;;
14770;SDS011;7477;45.222;5.688;2023-05-10T18:03:23;3.70;;;1.13;;
14770;SDS011;7477;45.222;5.688;2023-05-10T18:06:43;5.45;;;1.52;;
14770;SDS011;7477;45.222;5.688;2023-05-10T18:10:02;3.70;;;1.73;;
14770;SDS011;7477;45.222;5.688;2023-05-10T18:13:22;4.63;;;1.45;;
14770;SDS011;7477;45.222;5.688;2023-05-10T18:16:43;2.70;;;1.30;;
14770;SDS011;7477;45.222;5.688;2023-05-10T18:20:02;1.30;;;1.05;;
14770;SDS011;7477;45.222;5.688;2023-05-10T18:23:22;2.45;;;1.08;;
14770;SDS011;7477;45.222;5.688;2023-05-10T18:26:42;2.50;;;0.70;;
14770;SDS011;7477;45.222;5.688;2023-05-10T18:30:01;1.73;;;0.80;;
14770;SDS011;7477;45.222;5.688;2023-05-10T18:33:21;3.70;;;1.00;;
14770;SDS011;7477;45.222;5.688;2023-05-10T18:36:41;2.35;;;1.00;;
14770;SDS011;7477;45.222;5.688;2023-05-10T18:40:01;2.58;;;1.27;;
14770;SDS011;7477;45.222;5.688;2023-05-10T18:43:22;1.58;;;1.10;;
14770;SDS011;7477;45.222;5.688;2023-05-10T18:46:42;1.42;;;0.98;;
14770;SDS011;7477;45.222;5.688;2023-05-10T18:50:02;3.05;;;1.00;;
14770;SDS011;7477;45.222;5.688;2023-05-10T18:53:23;0.98;;;0.75;;
14770;SDS011;7477;45.222;5.688;2023-05-10T18:56:42;3.10;;;1.17;;
14770;SDS011;7477;45.222;5.688;2023-05-10T19:00:04;3.03;;;1.40;;
14770;SDS011;7477;45.222;5.688;2023-05-10T19:03:27;2.83;;;1.02;;
14770;SDS011;7477;45.222;5.688;2023-05-10T19:06:47;2.45;;;1.42;;
14770;SDS011;7477;45.222;5.688;2023-05-10T19:10:06;3.83;;;0.98;;
14770;SDS011;7477;45.222;5.688;2023-05-10T19:13:26;1.70;;;0.90;;
14770;SDS011;7477;45.222;5.688;2023-05-10T19:16:46;2.63;;;1.10;;
14770;SDS011;7477;45.222;5.688;2023-05-10T19:20:06;4.75;;;1.17;;
14770;SDS011;7477;45.222;5.688;2023-05-10T19:23:25;3.30;;;1.30;;
14770;SDS011;7477;45.222;5.688;2023-05-10T19:26:44;3.90;;;0.90;;
14770;SDS011;7477;45.222;5.688;2023-05-10T19:30:04;3.78;;;1.02;;
14770;SDS011;7477;45.222;5.688;2023-05-10T19:33:24;1.88;;;1.10;;
14770;SDS011;7477;45.222;5.688;2023-05-10T19:36:43;3.47;;;1.13;;
14770;SDS011;7477;45.222;5.688;2023-05-10T19:40:03;1.33;;;1.08;;
14770;SDS011;7477;45.222;5.688;2023-05-10T19:43:26;2.50;;;0.90;;
14770;SDS011;7477;45.222;5.688;2023-05-10T19:46:47;2.08;;;1.10;;
14770;SDS011;7477;45.222;5.688;2023-05-10T19:50:06;1.33;;;0.98;;
14770;SDS011;7477;45.222;5.688;2023-05-10T19:53:25;8.00;;;1.60;;
14770;SDS011;7477;45.222;5.688;2023-05-10T19:56:45;2.22;;;0.98;;
14770;SDS011;7477;45.222;5.688;2023-05-10T20:00:05;1.23;;;0.80;;
14770;SDS011;7477;45.222;5.688;2023-05-10T20:03:25;2.78;;;1.00;;
14770;SDS011;7477;45.222;5.688;2023-05-10T20:06:44;3.83;;;1.10;;
14770;SDS011;7477;45.222;5.688;2023-05-10T20:10:03;1.60;;;1.15;;
14770;SDS011;7477;45.222;5.688;2023-05-10T20:13:23;4.40;;;1.20;;
14770;SDS011;7477;45.222;5.688;2023-05-10T20:16:42;2.35;;;1.35;;
14770;SDS011;7477;45.222;5.688;2023-05-10T20:20:02;2.85;;;1.20;;
14770;SDS011;7477;45.222;5.688;2023-05-10T20:23:21;2.55;;;1.20;;
14770;SDS011;7477;45.222;5.688;2023-05-10T20:26:41;2.25;;;1.25;;
14770;SDS011;7477;45.222;5.688;2023-05-10T20:30:00;1.60;;;1.20;;
14770;SDS011;7477;45.222;5.688;2023-05-10T20:33:20;2.33;;;1.00;;
14770;SDS011;7477;45.222;5.688;2023-05-10T20:36:40;2.28;;;1.15;;
14770;SDS011;7477;45.222;5.688;2023-05-10T20:40:00;1.55;;;1.30;;
14770;SDS011;7477;45.222;5.688;2023-05-10T20:43:19;1.63;;;1.02;;
14770;SDS011;7477;45.222;5.688;2023-05-10T20:46:38;3.08;;;1.23;;
14770;SDS011;7477;45.222;5.688;2023-05-10T20:49:58;2.08;;;1.00;;